sensor_id;sensor_type;location;lat;lon;timestamp;P1;durP1;ratioP1;P2;durP2;ratioP2
56319;SDS011;42226;42.382;23.748;2023-05-10T00:00:55;10.10;;;9.20;;
56319;SDS011;42226;42.382;23.748;2023-05-10T00:03:22;11.68;;;10.57;;
56319;SDS011;42226;42.382;23.748;2023-05-10T00:05:49;10.00;;;9.00;;
56319;SDS011;42226;42.382;23.748;2023-05-10T00:08:15;8.93;;;8.02;;
56319;SDS011;42226;42.382;23.748;2023-05-10T00:10:42;10.25;;;9.25;;
56319;SDS011;42226;42.382;23.748;2023-05-10T00:13:09;9.52;;;8.68;;
56319;SDS011;42226;42.382;23.748;2023-05-10T00:15:36;8.93;;;8.13;;
56319;SDS011;42226;42.382;23.748;2023-05-10T00:18:03;8.63;;;7.78;;
56319;SDS011;42226;42.382;23.748;2023-05-10T00:20:29;8.10;;;7.40;;
56319;SDS011;42226;42.382;23.748;2023-05-10T00:22:56;11.93;;;10.73;;
56319;SDS011;42226;42.382;23.748;2023-05-10T00:25:23;9.40;;;8.52;;
56319;SDS011;42226;42.382;23.748;2023-05-10T00:27:50;8.90;;;8.10;;
56319;SDS011;42226;42.382;23.748;2023-05-10T00:30:17;8.85;;;8.05;;
56319;SDS011;42226;42.382;23.748;2023-05-10T00:32:44;10.02;;;9.02;;
56319;SDS011;42226;42.382;23.748;2023-05-10T00:35:10;7.70;;;6.95;;
56319;SDS011;42226;42.382;23.748;2023-05-10T00:37:37;9.48;;;8.57;;
56319;SDS011;42226;42.382;23.748;2023-05-10T00:40:05;8.77;;;7.88;;
56319;SDS011;42226;42.382;23.748;2023-05-10T00:42:32;9.02;;;8.13;;
56319;SDS011;42226;42.382;23.748;2023-05-10T00:44:59;8.50;;;7.60;;
56319;SDS011;42226;42.382;23.748;2023-05-10T00:47:26;7.63;;;7.03;;
56319;SDS011;42226;42.382;23.748;2023-05-10T00:49:56;8.30;;;7.50;;
56319;SDS011;42226;42.382;23.748;2023-05-10T00:52:26;9.18;;;7.82;;
56319;SDS011;42226;42.382;23.748;2023-05-10T00:54:55;8.40;;;7.25;;
56319;SDS011;42226;42.382;23.748;2023-05-10T00:57:23;7.88;;;6.53;;
56319;SDS011;42226;42.382;23.748;2023-05-10T00:59:50;7.72;;;6.95;;
56319;SDS011;42226;42.382;23.748;2023-05-10T01:02:18;7.32;;;6.15;;
56319;SDS011;42226;42.382;23.748;2023-05-10T01:04:45;7.78;;;6.95;;
56319;SDS011;42226;42.382;23.748;2023-05-10T01:07:12;7.05;;;6.35;;
56319;SDS011;42226;42.382;23.748;2023-05-10T01:09:39;6.05;;;5.55;;
56319;SDS011;42226;42.382;23.748;2023-05-10T01:12:06;6.80;;;6.20;;
56319;SDS011;42226;42.382;23.748;2023-05-10T01:14:33;9.90;;;7.28;;
56319;SDS011;42226;42.382;23.748;2023-05-10T01:17:01;7.65;;;6.85;;
56319;SDS011;42226;42.382;23.748;2023-05-10T01:19:29;8.48;;;7.60;;
56319;SDS011;42226;42.382;23.748;2023-05-10T01:31:16;6.85;;;6.15;;
56319;SDS011;42226;42.382;23.748;2023-05-10T01:37:13;7.70;;;6.97;;
56319;SDS011;42226;42.382;23.748;2023-05-10T01:39:54;9.07;;;7.13;;
56319;SDS011;42226;42.382;23.748;2023-05-10T01:42:40;8.57;;;7.40;;
56319;SDS011;42226;42.382;23.748;2023-05-10T01:48:09;9.27;;;8.05;;
56319;SDS011;42226;42.382;23.748;2023-05-10T01:50:38;8.13;;;7.32;;
56319;SDS011;42226;42.382;23.748;2023-05-10T01:53:09;8.70;;;7.55;;
56319;SDS011;42226;42.382;23.748;2023-05-10T01:55:45;7.65;;;6.55;;
56319;SDS011;42226;42.382;23.748;2023-05-10T01:58:26;7.40;;;6.70;;
56319;SDS011;42226;42.382;23.748;2023-05-10T02:01:00;8.43;;;6.65;;
56319;SDS011;42226;42.382;23.748;2023-05-10T02:03:29;7.90;;;6.25;;
56319;SDS011;42226;42.382;23.748;2023-05-10T02:05:58;7.10;;;6.40;;
56319;SDS011;42226;42.382;23.748;2023-05-10T02:08:25;7.28;;;6.47;;
56319;SDS011;42226;42.382;23.748;2023-05-10T02:10:53;7.63;;;6.47;;
56319;SDS011;42226;42.382;23.748;2023-05-10T02:13:23;8.23;;;7.35;;
56319;SDS011;42226;42.382;23.748;2023-05-10T02:15:51;6.90;;;6.30;;
56319;SDS011;42226;42.382;23.748;2023-05-10T02:18:20;8.90;;;6.80;;
56319;SDS011;42226;42.382;23.748;2023-05-10T02:20:49;8.43;;;7.35;;
56319;SDS011;42226;42.382;23.748;2023-05-10T02:23:17;8.25;;;7.47;;
56319;SDS011;42226;42.382;23.748;2023-05-10T02:25:45;9.82;;;7.70;;
56319;SDS011;42226;42.382;23.748;2023-05-10T02:28:14;9.85;;;7.68;;
56319;SDS011;42226;42.382;23.748;2023-05-10T02:30:42;7.93;;;7.10;;
56319;SDS011;42226;42.382;23.748;2023-05-10T02:33:09;10.20;;;7.82;;
56319;SDS011;42226;42.382;23.748;2023-05-10T02:35:37;8.15;;;7.15;;
56319;SDS011;42226;42.382;23.748;2023-05-10T02:38:04;7.95;;;7.15;;
56319;SDS011;42226;42.382;23.748;2023-05-10T02:40:33;8.05;;;7.25;;
56319;SDS011;42226;42.382;23.748;2023-05-10T02:43:02;9.10;;;7.10;;
56319;SDS011;42226;42.382;23.748;2023-05-10T02:45:31;8.85;;;7.55;;
56319;SDS011;42226;42.382;23.748;2023-05-10T02:47:59;8.80;;;7.28;;
56319;SDS011;42226;42.382;23.748;2023-05-10T02:50:27;8.88;;;7.22;;
56319;SDS011;42226;42.382;23.748;2023-05-10T02:52:56;8.57;;;7.63;;
56319;SDS011;42226;42.382;23.748;2023-05-10T02:55:32;8.95;;;8.15;;
56319;SDS011;42226;42.382;23.748;2023-05-10T02:58:07;7.80;;;7.10;;
56319;SDS011;42226;42.382;23.748;2023-05-10T03:00:34;9.30;;;7.13;;
56319;SDS011;42226;42.382;23.748;2023-05-10T03:03:01;7.97;;;7.18;;
56319;SDS011;42226;42.382;23.748;2023-05-10T03:05:28;8.93;;;7.05;;
56319;SDS011;42226;42.382;23.748;2023-05-10T03:07:54;9.23;;;7.70;;
56319;SDS011;42226;42.382;23.748;2023-05-10T03:10:22;12.15;;;7.40;;
56319;SDS011;42226;42.382;23.748;2023-05-10T03:13:09;10.02;;;7.53;;
56319;SDS011;42226;42.382;23.748;2023-05-10T03:21:06;9.05;;;7.53;;
56319;SDS011;42226;42.382;23.748;2023-05-10T03:26:22;8.38;;;7.50;;
56319;SDS011;42226;42.382;23.748;2023-05-10T03:28:52;8.50;;;7.10;;
56319;SDS011;42226;42.382;23.748;2023-05-10T03:31:19;8.55;;;7.30;;
56319;SDS011;42226;42.382;23.748;2023-05-10T03:33:47;9.18;;;8.27;;
56319;SDS011;42226;42.382;23.748;2023-05-10T03:36:16;9.35;;;8.30;;
56319;SDS011;42226;42.382;23.748;2023-05-10T03:38:43;9.73;;;8.75;;
56319;SDS011;42226;42.382;23.748;2023-05-10T03:41:10;10.77;;;9.55;;
56319;SDS011;42226;42.382;23.748;2023-05-10T03:43:37;9.32;;;8.25;;
56319;SDS011;42226;42.382;23.748;2023-05-10T03:46:05;8.98;;;8.13;;
56319;SDS011;42226;42.382;23.748;2023-05-10T03:48:32;9.63;;;8.68;;
56319;SDS011;42226;42.382;23.748;2023-05-10T03:50:59;8.77;;;7.88;;
56319;SDS011;42226;42.382;23.748;2023-05-10T03:53:27;10.02;;;9.02;;
56319;SDS011;42226;42.382;23.748;2023-05-10T03:55:54;8.82;;;7.93;;
56319;SDS011;42226;42.382;23.748;2023-05-10T03:58:21;8.60;;;6.97;;
56319;SDS011;42226;42.382;23.748;2023-05-10T04:00:47;7.88;;;7.07;;
56319;SDS011;42226;42.382;23.748;2023-05-10T04:03:14;9.50;;;7.03;;
56319;SDS011;42226;42.382;23.748;2023-05-10T04:05:41;7.32;;;6.63;;
56319;SDS011;42226;42.382;23.748;2023-05-10T04:08:08;6.88;;;6.18;;
56319;SDS011;42226;42.382;23.748;2023-05-10T04:10:35;7.15;;;6.45;;
56319;SDS011;42226;42.382;23.748;2023-05-10T04:13:02;7.70;;;6.90;;
56319;SDS011;42226;42.382;23.748;2023-05-10T04:15:29;9.13;;;6.90;;
56319;SDS011;42226;42.382;23.748;2023-05-10T04:17:56;7.47;;;6.68;;
56319;SDS011;42226;42.382;23.748;2023-05-10T04:20:23;8.68;;;7.03;;
56319;SDS011;42226;42.382;23.748;2023-05-10T04:22:49;9.20;;;8.10;;
56319;SDS011;42226;42.382;23.748;2023-05-10T04:25:16;7.72;;;6.70;;
56319;SDS011;42226;42.382;23.748;2023-05-10T04:27:43;7.78;;;6.97;;
56319;SDS011;42226;42.382;23.748;2023-05-10T04:30:10;8.65;;;7.75;;
56319;SDS011;42226;42.382;23.748;2023-05-10T04:32:37;8.50;;;7.60;;
56319;SDS011;42226;42.382;23.748;2023-05-10T04:35:04;8.48;;;7.57;;
56319;SDS011;42226;42.382;23.748;2023-05-10T04:37:31;9.20;;;7.63;;
56319;SDS011;42226;42.382;23.748;2023-05-10T04:39:58;8.23;;;7.43;;
56319;SDS011;42226;42.382;23.748;2023-05-10T04:42:25;9.38;;;8.38;;
56319;SDS011;42226;42.382;23.748;2023-05-10T04:44:52;10.25;;;9.18;;
56319;SDS011;42226;42.382;23.748;2023-05-10T04:47:19;9.57;;;8.57;;
56319;SDS011;42226;42.382;23.748;2023-05-10T04:49:45;9.60;;;8.68;;
56319;SDS011;42226;42.382;23.748;2023-05-10T04:52:12;10.02;;;9.02;;
56319;SDS011;42226;42.382;23.748;2023-05-10T04:54:41;10.82;;;9.63;;
56319;SDS011;42226;42.382;23.748;2023-05-10T04:57:08;10.80;;;9.70;;
56319;SDS011;42226;42.382;23.748;2023-05-10T04:59:35;11.25;;;9.63;;
56319;SDS011;42226;42.382;23.748;2023-05-10T05:02:02;11.77;;;10.20;;
56319;SDS011;42226;42.382;23.748;2023-05-10T05:04:30;11.18;;;9.20;;
56319;SDS011;42226;42.382;23.748;2023-05-10T05:06:57;11.25;;;9.18;;
56319;SDS011;42226;42.382;23.748;2023-05-10T05:09:23;10.88;;;9.75;;
56319;SDS011;42226;42.382;23.748;2023-05-10T05:11:50;10.73;;;9.45;;
56319;SDS011;42226;42.382;23.748;2023-05-10T05:14:17;10.40;;;9.32;;
56319;SDS011;42226;42.382;23.748;2023-05-10T05:16:46;11.45;;;9.63;;
56319;SDS011;42226;42.382;23.748;2023-05-10T05:19:13;11.68;;;10.23;;
56319;SDS011;42226;42.382;23.748;2023-05-10T05:21:40;11.98;;;10.13;;
56319;SDS011;42226;42.382;23.748;2023-05-10T05:24:07;11.65;;;10.38;;
56319;SDS011;42226;42.382;23.748;2023-05-10T05:26:35;9.80;;;8.80;;
56319;SDS011;42226;42.382;23.748;2023-05-10T05:29:02;9.38;;;8.45;;
56319;SDS011;42226;42.382;23.748;2023-05-10T05:31:29;9.93;;;8.63;;
56319;SDS011;42226;42.382;23.748;2023-05-10T05:33:56;9.85;;;8.90;;
56319;SDS011;42226;42.382;23.748;2023-05-10T05:36:23;9.90;;;8.93;;
56319;SDS011;42226;42.382;23.748;2023-05-10T05:38:49;10.38;;;9.38;;
56319;SDS011;42226;42.382;23.748;2023-05-10T05:41:16;10.68;;;9.30;;
56319;SDS011;42226;42.382;23.748;2023-05-10T05:43:43;12.88;;;10.32;;
56319;SDS011;42226;42.382;23.748;2023-05-10T05:46:10;10.55;;;9.48;;
56319;SDS011;42226;42.382;23.748;2023-05-10T05:48:36;11.57;;;10.10;;
56319;SDS011;42226;42.382;23.748;2023-05-10T05:51:03;9.23;;;8.32;;
56319;SDS011;42226;42.382;23.748;2023-05-10T05:53:30;10.45;;;9.25;;
56319;SDS011;42226;42.382;23.748;2023-05-10T05:55:57;10.52;;;8.55;;
56319;SDS011;42226;42.382;23.748;2023-05-10T05:58:25;10.90;;;9.55;;
56319;SDS011;42226;42.382;23.748;2023-05-10T06:00:52;10.35;;;8.85;;
56319;SDS011;42226;42.382;23.748;2023-05-10T06:03:19;10.52;;;9.43;;
56319;SDS011;42226;42.382;23.748;2023-05-10T06:05:46;10.80;;;8.57;;
56319;SDS011;42226;42.382;23.748;2023-05-10T06:08:13;9.02;;;8.15;;
56319;SDS011;42226;42.382;23.748;2023-05-10T06:10:40;12.10;;;9.20;;
56319;SDS011;42226;42.382;23.748;2023-05-10T06:13:06;12.27;;;9.80;;
56319;SDS011;42226;42.382;23.748;2023-05-10T06:15:32;10.45;;;9.35;;
56319;SDS011;42226;42.382;23.748;2023-05-10T06:17:59;11.52;;;9.93;;
56319;SDS011;42226;42.382;23.748;2023-05-10T06:20:26;11.32;;;10.20;;
56319;SDS011;42226;42.382;23.748;2023-05-10T06:22:52;12.00;;;10.57;;
56319;SDS011;42226;42.382;23.748;2023-05-10T06:25:19;12.13;;;10.93;;
56319;SDS011;42226;42.382;23.748;2023-05-10T06:27:46;14.77;;;10.63;;
56319;SDS011;42226;42.382;23.748;2023-05-10T06:30:12;14.02;;;12.38;;
56319;SDS011;42226;42.382;23.748;2023-05-10T06:32:41;13.77;;;11.98;;
56319;SDS011;42226;42.382;23.748;2023-05-10T06:35:09;12.38;;;11.07;;
56319;SDS011;42226;42.382;23.748;2023-05-10T06:37:35;12.00;;;10.80;;
56319;SDS011;42226;42.382;23.748;2023-05-10T06:40:02;13.55;;;12.25;;
56319;SDS011;42226;42.382;23.748;2023-05-10T06:42:29;14.18;;;12.70;;
56319;SDS011;42226;42.382;23.748;2023-05-10T06:44:55;12.38;;;11.18;;
56319;SDS011;42226;42.382;23.748;2023-05-10T06:47:22;14.77;;;12.40;;
56319;SDS011;42226;42.382;23.748;2023-05-10T06:49:48;13.48;;;11.68;;
56319;SDS011;42226;42.382;23.748;2023-05-10T06:52:15;13.55;;;11.95;;
56319;SDS011;42226;42.382;23.748;2023-05-10T06:54:41;15.13;;;13.23;;
56319;SDS011;42226;42.382;23.748;2023-05-10T06:57:08;13.93;;;12.52;;
56319;SDS011;42226;42.382;23.748;2023-05-10T06:59:34;14.45;;;11.35;;
56319;SDS011;42226;42.382;23.748;2023-05-10T07:02:01;14.75;;;12.70;;
56319;SDS011;42226;42.382;23.748;2023-05-10T07:04:28;13.10;;;11.20;;
56319;SDS011;42226;42.382;23.748;2023-05-10T07:06:54;13.23;;;11.82;;
56319;SDS011;42226;42.382;23.748;2023-05-10T07:09:21;12.95;;;11.65;;
56319;SDS011;42226;42.382;23.748;2023-05-10T07:11:49;12.13;;;10.93;;
56319;SDS011;42226;42.382;23.748;2023-05-10T07:14:15;13.13;;;11.43;;
56319;SDS011;42226;42.382;23.748;2023-05-10T07:16:42;12.32;;;11.02;;
56319;SDS011;42226;42.382;23.748;2023-05-10T07:19:09;11.65;;;10.55;;
56319;SDS011;42226;42.382;23.748;2023-05-10T07:21:35;10.23;;;9.23;;
56319;SDS011;42226;42.382;23.748;2023-05-10T07:24:02;10.73;;;9.63;;
56319;SDS011;42226;42.382;23.748;2023-05-10T07:26:29;11.82;;;10.63;;
56319;SDS011;42226;42.382;23.748;2023-05-10T07:28:55;12.73;;;11.43;;
56319;SDS011;42226;42.382;23.748;2023-05-10T07:31:22;12.82;;;11.52;;
56319;SDS011;42226;42.382;23.748;2023-05-10T07:33:48;11.75;;;10.52;;
56319;SDS011;42226;42.382;23.748;2023-05-10T07:36:15;11.30;;;10.10;;
56319;SDS011;42226;42.382;23.748;2023-05-10T07:38:41;11.40;;;10.32;;
56319;SDS011;42226;42.382;23.748;2023-05-10T07:41:08;12.20;;;10.93;;
56319;SDS011;42226;42.382;23.748;2023-05-10T07:43:34;12.73;;;9.20;;
56319;SDS011;42226;42.382;23.748;2023-05-10T07:46:01;11.00;;;10.00;;
56319;SDS011;42226;42.382;23.748;2023-05-10T07:48:27;10.07;;;9.00;;
56319;SDS011;42226;42.382;23.748;2023-05-10T07:50:54;13.20;;;11.88;;
56319;SDS011;42226;42.382;23.748;2023-05-10T07:53:20;11.30;;;10.23;;
56319;SDS011;42226;42.382;23.748;2023-05-10T07:55:50;10.93;;;9.93;;
56319;SDS011;42226;42.382;23.748;2023-05-10T07:58:23;11.02;;;9.85;;
56319;SDS011;42226;42.382;23.748;2023-05-10T08:00:50;11.05;;;9.95;;
56319;SDS011;42226;42.382;23.748;2023-05-10T08:03:16;11.10;;;10.00;;
56319;SDS011;42226;42.382;23.748;2023-05-10T08:05:43;10.65;;;9.63;;
56319;SDS011;42226;42.382;23.748;2023-05-10T08:08:09;11.27;;;10.13;;
56319;SDS011;42226;42.382;23.748;2023-05-10T08:10:36;12.85;;;11.40;;
56319;SDS011;42226;42.382;23.748;2023-05-10T08:13:02;13.48;;;11.65;;
56319;SDS011;42226;42.382;23.748;2023-05-10T08:15:29;12.88;;;11.63;;
56319;SDS011;42226;42.382;23.748;2023-05-10T08:17:55;13.05;;;11.75;;
56319;SDS011;42226;42.382;23.748;2023-05-10T08:20:22;13.00;;;11.75;;
56319;SDS011;42226;42.382;23.748;2023-05-10T08:22:48;12.40;;;11.13;;
56319;SDS011;42226;42.382;23.748;2023-05-10T08:25:15;11.80;;;10.60;;
56319;SDS011;42226;42.382;23.748;2023-05-10T08:27:41;11.32;;;10.32;;
56319;SDS011;42226;42.382;23.748;2023-05-10T08:30:08;11.50;;;10.50;;
56319;SDS011;42226;42.382;23.748;2023-05-10T08:32:37;13.00;;;11.70;;
56319;SDS011;42226;42.382;23.748;2023-05-10T08:35:03;11.68;;;10.68;;
56319;SDS011;42226;42.382;23.748;2023-05-10T08:37:30;14.02;;;12.80;;
56319;SDS011;42226;42.382;23.748;2023-05-10T08:39:58;10.93;;;10.00;;
56319;SDS011;42226;42.382;23.748;2023-05-10T08:42:24;11.38;;;10.27;;
56319;SDS011;42226;42.382;23.748;2023-05-10T08:44:53;10.70;;;9.48;;
56319;SDS011;42226;42.382;23.748;2023-05-10T08:47:21;10.50;;;9.07;;
56319;SDS011;42226;42.382;23.748;2023-05-10T08:49:48;9.88;;;8.88;;
56319;SDS011;42226;42.382;23.748;2023-05-10T08:52:16;9.77;;;8.80;;
56319;SDS011;42226;42.382;23.748;2023-05-10T08:54:43;10.85;;;9.38;;
56319;SDS011;42226;42.382;23.748;2023-05-10T08:57:10;10.30;;;9.25;;
56319;SDS011;42226;42.382;23.748;2023-05-10T08:59:37;9.65;;;8.65;;
56319;SDS011;42226;42.382;23.748;2023-05-10T09:02:05;9.50;;;8.60;;
56319;SDS011;42226;42.382;23.748;2023-05-10T09:04:33;9.65;;;8.65;;
56319;SDS011;42226;42.382;23.748;2023-05-10T09:07:00;9.80;;;7.90;;
56319;SDS011;42226;42.382;23.748;2023-05-10T09:09:26;8.77;;;7.95;;
56319;SDS011;42226;42.382;23.748;2023-05-10T09:11:53;8.85;;;8.05;;
56319;SDS011;42226;42.382;23.748;2023-05-10T09:14:20;10.48;;;9.40;;
56319;SDS011;42226;42.382;23.748;2023-05-10T09:16:49;8.73;;;7.65;;
56319;SDS011;42226;42.382;23.748;2023-05-10T09:19:16;9.07;;;7.95;;
56319;SDS011;42226;42.382;23.748;2023-05-10T09:21:42;9.40;;;8.00;;
56319;SDS011;42226;42.382;23.748;2023-05-10T09:24:09;9.18;;;7.32;;
56319;SDS011;42226;42.382;23.748;2023-05-10T09:26:45;8.55;;;7.75;;
56319;SDS011;42226;42.382;23.748;2023-05-10T09:29:13;9.00;;;8.20;;
56319;SDS011;42226;42.382;23.748;2023-05-10T09:31:44;9.05;;;8.15;;
56319;SDS011;42226;42.382;23.748;2023-05-10T09:34:19;7.93;;;7.20;;
56319;SDS011;42226;42.382;23.748;2023-05-10T09:36:55;7.82;;;7.13;;
56319;SDS011;42226;42.382;23.748;2023-05-10T09:39:36;10.00;;;7.65;;
56319;SDS011;42226;42.382;23.748;2023-05-10T09:42:03;9.45;;;8.60;;
56319;SDS011;42226;42.382;23.748;2023-05-10T09:44:35;8.10;;;7.05;;
56319;SDS011;42226;42.382;23.748;2023-05-10T09:47:03;8.73;;;7.93;;
56319;SDS011;42226;42.382;23.748;2023-05-10T09:49:29;8.02;;;7.22;;
56319;SDS011;42226;42.382;23.748;2023-05-10T09:52:15;9.07;;;7.85;;
56319;SDS011;42226;42.382;23.748;2023-05-10T09:54:44;7.95;;;7.32;;
56319;SDS011;42226;42.382;23.748;2023-05-10T09:57:23;9.20;;;8.30;;
56319;SDS011;42226;42.382;23.748;2023-05-10T09:59:51;16.35;;;9.02;;
56319;SDS011;42226;42.382;23.748;2023-05-10T10:02:19;10.13;;;9.20;;
56319;SDS011;42226;42.382;23.748;2023-05-10T10:04:48;15.00;;;8.90;;
56319;SDS011;42226;42.382;23.748;2023-05-10T10:07:17;11.93;;;10.57;;
56319;SDS011;42226;42.382;23.748;2023-05-10T10:09:50;13.00;;;11.80;;
56319;SDS011;42226;42.382;23.748;2023-05-10T10:12:17;13.02;;;11.48;;
56319;SDS011;42226;42.382;23.748;2023-05-10T10:14:45;14.20;;;11.77;;
56319;SDS011;42226;42.382;23.748;2023-05-10T10:17:15;14.32;;;11.52;;
56319;SDS011;42226;42.382;23.748;2023-05-10T10:19:42;13.30;;;12.00;;
56319;SDS011;42226;42.382;23.748;2023-05-10T10:22:10;12.63;;;11.43;;
56319;SDS011;42226;42.382;23.748;2023-05-10T10:24:37;13.60;;;12.20;;
56319;SDS011;42226;42.382;23.748;2023-05-10T10:28:09;12.65;;;11.27;;
56319;SDS011;42226;42.382;23.748;2023-05-10T10:35:55;13.75;;;12.40;;
56319;SDS011;42226;42.382;23.748;2023-05-10T10:38:25;16.02;;;14.63;;
56319;SDS011;42226;42.382;23.748;2023-05-10T10:50:02;18.55;;;16.73;;
56319;SDS011;42226;42.382;23.748;2023-05-10T10:52:32;18.98;;;17.08;;
56319;SDS011;42226;42.382;23.748;2023-05-10T11:05:41;17.02;;;15.27;;
56319;SDS011;42226;42.382;23.748;2023-05-10T11:08:16;17.20;;;15.60;;
56319;SDS011;42226;42.382;23.748;2023-05-10T11:11:03;16.23;;;14.63;;
56319;SDS011;42226;42.382;23.748;2023-05-10T11:16:18;16.20;;;14.70;;
56319;SDS011;42226;42.382;23.748;2023-05-10T11:18:58;17.10;;;15.00;;
56319;SDS011;42226;42.382;23.748;2023-05-10T11:21:27;16.00;;;14.48;;
56319;SDS011;42226;42.382;23.748;2023-05-10T11:23:58;16.20;;;14.70;;
56319;SDS011;42226;42.382;23.748;2023-05-10T11:26:33;17.10;;;15.20;;
56319;SDS011;42226;42.382;23.748;2023-05-10T11:29:00;15.68;;;14.15;;
56319;SDS011;42226;42.382;23.748;2023-05-10T11:31:29;17.50;;;15.80;;
56319;SDS011;42226;42.382;23.748;2023-05-10T11:33:56;15.90;;;14.30;;
56319;SDS011;42226;42.382;23.748;2023-05-10T11:36:27;17.27;;;15.45;;
56319;SDS011;42226;42.382;23.748;2023-05-10T11:38:57;14.80;;;13.30;;
56319;SDS011;42226;42.382;23.748;2023-05-10T11:41:24;16.13;;;14.43;;
56319;SDS011;42226;42.382;23.748;2023-05-10T11:43:53;16.20;;;14.20;;
56319;SDS011;42226;42.382;23.748;2023-05-10T11:46:21;17.65;;;15.05;;
56319;SDS011;42226;42.382;23.748;2023-05-10T11:48:50;17.15;;;15.35;;
56319;SDS011;42226;42.382;23.748;2023-05-10T11:51:24;16.08;;;14.48;;
56319;SDS011;42226;42.382;23.748;2023-05-10T11:53:52;17.30;;;14.90;;
56319;SDS011;42226;42.382;23.748;2023-05-10T11:56:21;19.50;;;15.15;;
56319;SDS011;42226;42.382;23.748;2023-05-10T11:58:52;16.60;;;14.63;;
56319;SDS011;42226;42.382;23.748;2023-05-10T12:01:21;16.50;;;14.80;;
56319;SDS011;42226;42.382;23.748;2023-05-10T12:03:51;15.50;;;13.35;;
56319;SDS011;42226;42.382;23.748;2023-05-10T12:06:20;15.13;;;13.52;;
56319;SDS011;42226;42.382;23.748;2023-05-10T12:08:47;15.57;;;14.02;;
56319;SDS011;42226;42.382;23.748;2023-05-10T12:11:18;14.77;;;13.25;;
56319;SDS011;42226;42.382;23.748;2023-05-10T12:13:46;14.18;;;12.88;;
56319;SDS011;42226;42.382;23.748;2023-05-10T12:16:17;15.23;;;13.50;;
56319;SDS011;42226;42.382;23.748;2023-05-10T12:18:51;14.80;;;13.30;;
56319;SDS011;42226;42.382;23.748;2023-05-10T12:21:19;14.10;;;12.75;;
56319;SDS011;42226;42.382;23.748;2023-05-10T12:23:50;17.08;;;13.55;;
56319;SDS011;42226;42.382;23.748;2023-05-10T12:26:20;14.95;;;13.43;;
56319;SDS011;42226;42.382;23.748;2023-05-10T12:28:49;16.08;;;14.48;;
56319;SDS011;42226;42.382;23.748;2023-05-10T12:31:15;16.42;;;14.70;;
56319;SDS011;42226;42.382;23.748;2023-05-10T12:33:43;13.77;;;12.35;;
56319;SDS011;42226;42.382;23.748;2023-05-10T12:36:12;14.13;;;12.68;;
56319;SDS011;42226;42.382;23.748;2023-05-10T12:38:44;14.80;;;13.32;;
56319;SDS011;42226;42.382;23.748;2023-05-10T12:41:16;17.42;;;14.40;;
56319;SDS011;42226;42.382;23.748;2023-05-10T12:43:44;15.00;;;13.23;;
56319;SDS011;42226;42.382;23.748;2023-05-10T12:46:12;15.38;;;13.77;;
56319;SDS011;42226;42.382;23.748;2023-05-10T12:48:42;16.42;;;14.10;;
56319;SDS011;42226;42.382;23.748;2023-05-10T12:51:11;14.57;;;13.20;;
56319;SDS011;42226;42.382;23.748;2023-05-10T12:53:40;17.27;;;14.35;;
56319;SDS011;42226;42.382;23.748;2023-05-10T12:56:07;16.90;;;13.88;;
56319;SDS011;42226;42.382;23.748;2023-05-10T12:58:34;16.08;;;13.30;;
56319;SDS011;42226;42.382;23.748;2023-05-10T13:01:01;14.68;;;13.25;;
56319;SDS011;42226;42.382;23.748;2023-05-10T13:03:29;13.15;;;11.80;;
56319;SDS011;42226;42.382;23.748;2023-05-10T13:05:56;15.30;;;13.50;;
56319;SDS011;42226;42.382;23.748;2023-05-10T13:08:23;13.55;;;12.13;;
56319;SDS011;42226;42.382;23.748;2023-05-10T13:10:50;16.23;;;13.23;;
56319;SDS011;42226;42.382;23.748;2023-05-10T13:13:17;14.35;;;13.07;;
56319;SDS011;42226;42.382;23.748;2023-05-10T13:15:43;14.13;;;12.63;;
56319;SDS011;42226;42.382;23.748;2023-05-10T13:18:10;13.93;;;12.57;;
56319;SDS011;42226;42.382;23.748;2023-05-10T13:20:37;13.68;;;12.27;;
56319;SDS011;42226;42.382;23.748;2023-05-10T13:23:04;13.80;;;12.40;;
56319;SDS011;42226;42.382;23.748;2023-05-10T13:25:31;13.43;;;12.02;;
56319;SDS011;42226;42.382;23.748;2023-05-10T13:27:59;12.85;;;11.73;;
56319;SDS011;42226;42.382;23.748;2023-05-10T13:30:26;14.20;;;12.75;;
56319;SDS011;42226;42.382;23.748;2023-05-10T13:32:53;13.23;;;11.82;;
56319;SDS011;42226;42.382;23.748;2023-05-10T13:35:20;13.02;;;11.80;;
56319;SDS011;42226;42.382;23.748;2023-05-10T13:37:47;12.90;;;11.48;;
56319;SDS011;42226;42.382;23.748;2023-05-10T13:40:14;13.20;;;11.95;;
56319;SDS011;42226;42.382;23.748;2023-05-10T13:42:41;13.13;;;11.82;;
56319;SDS011;42226;42.382;23.748;2023-05-10T13:45:08;13.07;;;11.80;;
56319;SDS011;42226;42.382;23.748;2023-05-10T13:47:37;13.13;;;11.88;;
56319;SDS011;42226;42.382;23.748;2023-05-10T13:50:03;12.48;;;11.30;;
56319;SDS011;42226;42.382;23.748;2023-05-10T13:52:31;12.02;;;10.93;;
56319;SDS011;42226;42.382;23.748;2023-05-10T13:54:58;12.52;;;11.20;;
56319;SDS011;42226;42.382;23.748;2023-05-10T13:57:25;12.48;;;11.25;;
56319;SDS011;42226;42.382;23.748;2023-05-10T13:59:51;13.00;;;11.80;;
56319;SDS011;42226;42.382;23.748;2023-05-10T14:02:18;14.00;;;12.80;;
56319;SDS011;42226;42.382;23.748;2023-05-10T14:04:45;14.38;;;13.00;;
56319;SDS011;42226;42.382;23.748;2023-05-10T14:07:13;14.13;;;12.48;;
56319;SDS011;42226;42.382;23.748;2023-05-10T14:09:40;13.45;;;12.32;;
56319;SDS011;42226;42.382;23.748;2023-05-10T14:12:06;13.95;;;12.55;;
56319;SDS011;42226;42.382;23.748;2023-05-10T14:14:33;13.70;;;12.40;;
56319;SDS011;42226;42.382;23.748;2023-05-10T14:17:01;13.90;;;12.50;;
56319;SDS011;42226;42.382;23.748;2023-05-10T14:19:28;13.40;;;12.20;;
56319;SDS011;42226;42.382;23.748;2023-05-10T14:21:57;13.45;;;12.27;;
56319;SDS011;42226;42.382;23.748;2023-05-10T14:24:24;14.80;;;13.35;;
56319;SDS011;42226;42.382;23.748;2023-05-10T14:26:51;13.82;;;12.60;;
56319;SDS011;42226;42.382;23.748;2023-05-10T14:29:20;13.52;;;12.13;;
56319;SDS011;42226;42.382;23.748;2023-05-10T14:31:47;14.02;;;12.80;;
56319;SDS011;42226;42.382;23.748;2023-05-10T14:34:15;13.43;;;11.85;;
56319;SDS011;42226;42.382;23.748;2023-05-10T14:36:41;12.75;;;11.60;;
56319;SDS011;42226;42.382;23.748;2023-05-10T14:39:08;14.40;;;13.02;;
56319;SDS011;42226;42.382;23.748;2023-05-10T14:41:37;12.23;;;11.10;;
56319;SDS011;42226;42.382;23.748;2023-05-10T14:44:06;13.15;;;11.77;;
56319;SDS011;42226;42.382;23.748;2023-05-10T14:46:33;12.60;;;11.55;;
56319;SDS011;42226;42.382;23.748;2023-05-10T14:49:00;12.40;;;11.05;;
56319;SDS011;42226;42.382;23.748;2023-05-10T14:51:26;12.48;;;11.18;;
56319;SDS011;42226;42.382;23.748;2023-05-10T14:53:53;13.43;;;11.82;;
56319;SDS011;42226;42.382;23.748;2023-05-10T14:56:20;12.23;;;11.05;;
56319;SDS011;42226;42.382;23.748;2023-05-10T14:58:47;12.13;;;11.05;;
56319;SDS011;42226;42.382;23.748;2023-05-10T15:01:14;12.25;;;11.20;;
56319;SDS011;42226;42.382;23.748;2023-05-10T15:03:41;12.20;;;11.10;;
56319;SDS011;42226;42.382;23.748;2023-05-10T15:06:08;12.43;;;11.23;;
56319;SDS011;42226;42.382;23.748;2023-05-10T15:08:35;12.68;;;11.48;;
56319;SDS011;42226;42.382;23.748;2023-05-10T15:11:02;11.95;;;10.75;;
56319;SDS011;42226;42.382;23.748;2023-05-10T15:13:29;11.75;;;10.75;;
56319;SDS011;42226;42.382;23.748;2023-05-10T15:15:55;12.52;;;11.32;;
56319;SDS011;42226;42.382;23.748;2023-05-10T15:18:22;12.73;;;11.50;;